createdAt,value
2023-01-29T00:02:21.095Z,37.60
2023-01-29T00:04:48.381Z,34.70
2023-01-29T00:07:15.837Z,34.80
2023-01-29T00:09:43.224Z,33.92
2023-01-29T00:12:10.314Z,33.65
2023-01-29T00:14:37.341Z,31.92
2023-01-29T00:17:04.403Z,34.28
2023-01-29T00:19:31.469Z,31.27
2023-01-29T00:21:58.377Z,34.53
2023-01-29T00:24:25.545Z,34.00
2023-01-29T00:26:52.652Z,31.70
2023-01-29T00:29:19.794Z,32.30
2023-01-29T00:31:47.472Z,33.33
2023-01-29T00:34:16.293Z,33.83
2023-01-29T00:36:45.557Z,32.50
2023-01-29T00:39:13.134Z,30.80
2023-01-29T00:41:58.417Z,30.33
2023-01-29T00:44:44.723Z,30.20
2023-01-29T00:47:30.193Z,28.15
2023-01-29T00:49:57.803Z,27.98
2023-01-29T00:52:25.622Z,27.83
2023-01-29T00:54:59.077Z,26.40
2023-01-29T00:57:29.923Z,26.63
2023-01-29T00:59:57.405Z,29.35
2023-01-29T01:02:44.418Z,27.90
2023-01-29T01:05:19.499Z,26.63
2023-01-29T01:07:49.621Z,27.10
2023-01-29T01:10:29.927Z,27.50
2023-01-29T01:12:58.776Z,26.85
2023-01-29T01:15:29.996Z,24.88
2023-01-29T01:18:00.493Z,25.38
2023-01-29T01:20:30.532Z,25.40
2023-01-29T01:22:58.021Z,24.40
2023-01-29T01:25:27.361Z,27.02
2023-01-29T01:30:27.559Z,24.90
2023-01-29T01:32:55.886Z,26.95
2023-01-29T01:35:23.188Z,24.63
2023-01-29T01:37:50.664Z,27.65
2023-01-29T01:40:23.547Z,25.73
2023-01-29T01:42:57.951Z,25.23
2023-01-29T01:45:30.429Z,24.35
2023-01-29T01:48:13.144Z,23.40
2023-01-29T01:50:47.334Z,24.83
2023-01-29T01:56:01.819Z,22.97
2023-01-29T01:58:44.252Z,23.90
2023-01-29T02:01:12.847Z,24.80
2023-01-29T02:04:11.350Z,24.25
2023-01-29T02:06:59.528Z,24.38
2023-01-29T02:09:38.931Z,25.98
2023-01-29T02:12:11.717Z,24.85
2023-01-29T02:14:41.289Z,23.17
2023-01-29T02:17:19.562Z,26.20
2023-01-29T02:20:07.388Z,26.75
2023-01-29T02:23:23.543Z,26.73
2023-01-29T02:26:27.973Z,27.55
2023-01-29T02:29:22.589Z,25.58
2023-01-29T02:32:32.432Z,25.02
2023-01-29T02:35:26.275Z,23.67
2023-01-29T02:38:38.660Z,25.45
2023-01-29T02:41:16.804Z,23.65
2023-01-29T02:43:54.102Z,25.75
2023-01-29T02:47:12.187Z,22.88
2023-01-29T02:49:55.673Z,24.25
2023-01-29T02:52:50.893Z,23.27
2023-01-29T02:55:26.671Z,23.05
2023-01-29T02:58:02.747Z,23.23
2023-01-29T03:00:39.806Z,23.15
2023-01-29T03:03:32.689Z,21.52
2023-01-29T03:06:12.150Z,22.63
2023-01-29T03:08:50.255Z,23.27
2023-01-29T03:11:18.272Z,24.40
2023-01-29T03:13:57.311Z,24.42
2023-01-29T03:16:40.468Z,23.63
2023-01-29T03:19:19.314Z,24.67
2023-01-29T03:21:59.089Z,24.60
2023-01-29T03:25:04.057Z,25.70
2023-01-29T03:28:00.293Z,22.70
2023-01-29T03:30:56.295Z,23.27
2023-01-29T03:33:36.578Z,25.50
2023-01-29T03:36:14.214Z,27.98
2023-01-29T03:38:41.627Z,25.15
2023-01-29T03:41:33.535Z,25.77
2023-01-29T03:44:19.307Z,23.67
2023-01-29T03:46:57.524Z,24.45
2023-01-29T03:49:32.302Z,24.25
2023-01-29T03:52:23.688Z,23.23
2023-01-29T03:55:18.313Z,22.15
2023-01-29T03:58:09.555Z,21.35
2023-01-29T04:00:45.995Z,22.27
2023-01-29T04:03:23.287Z,22.35
2023-01-29T04:06:10.669Z,23.00
2023-01-29T04:09:08.155Z,20.48
2023-01-29T04:11:45.427Z,19.75
2023-01-29T04:14:13.200Z,19.60
2023-01-29T04:16:46.204Z,21.20
2023-01-29T04:19:30.504Z,18.77
2023-01-29T04:22:07.692Z,20.58
2023-01-29T04:24:35.395Z,17.63
2023-01-29T04:27:28.316Z,18.65
2023-01-29T04:30:17.303Z,19.08
2023-01-29T04:33:04.571Z,17.67
2023-01-29T04:36:08.937Z,16.77
2023-01-29T04:39:05.552Z,18.73
2023-01-29T04:42:13.549Z,18.42
2023-01-29T04:44:58.273Z,19.80
2023-01-29T04:47:31.172Z,18.42
2023-01-29T04:50:22.675Z,19.90
2023-01-29T04:53:18.772Z,21.58
2023-01-29T04:55:50.330Z,20.58
2023-01-29T04:58:39.069Z,20.75
2023-01-29T05:01:12.741Z,21.40
2023-01-29T05:03:43.455Z,21.80
2023-01-29T05:06:11.942Z,21.67
2023-01-29T05:08:40.860Z,21.55
2023-01-29T05:11:08.473Z,21.08
2023-01-29T05:13:40.039Z,21.42
2023-01-29T05:16:19.108Z,20.35
2023-01-29T05:18:47.326Z,21.70
2023-01-29T05:21:14.486Z,21.95
2023-01-29T05:23:53.227Z,21.42
2023-01-29T05:26:40.185Z,19.52
2023-01-29T05:29:08.045Z,19.40
2023-01-29T05:31:35.077Z,19.25
2023-01-29T05:34:02.162Z,19.83
2023-01-29T05:36:29.421Z,20.40
2023-01-29T05:38:56.440Z,20.27
2023-01-29T05:41:23.463Z,19.83
2023-01-29T05:43:51.188Z,20.02
2023-01-29T05:46:18.930Z,18.40
2023-01-29T05:48:46.051Z,21.08
2023-01-29T05:51:13.052Z,17.05
2023-01-29T05:53:40.165Z,17.75
2023-01-29T05:56:07.522Z,18.25
2023-01-29T05:58:35.220Z,19.88
2023-01-29T06:01:16.639Z,18.77
2023-01-29T06:03:44.189Z,18.92
2023-01-29T06:06:12.074Z,19.88
2023-01-29T06:08:40.186Z,19.08
2023-01-29T06:11:10.888Z,19.65
2023-01-29T06:13:38.605Z,19.48
2023-01-29T06:16:09.856Z,18.17
2023-01-29T06:18:37.990Z,20.33
2023-01-29T06:21:08.520Z,22.55
2023-01-29T06:23:35.878Z,23.70
2023-01-29T06:26:11.381Z,23.45
2023-01-29T06:28:38.884Z,25.17
2023-01-29T06:31:26.478Z,25.33
2023-01-29T06:33:55.634Z,25.10
2023-01-29T06:36:23.200Z,27.27
2023-01-29T06:38:50.466Z,24.48
2023-01-29T06:41:20.623Z,22.92
2023-01-29T06:43:48.028Z,23.35
2023-01-29T06:46:15.346Z,21.92
2023-01-29T06:48:43.045Z,22.67
2023-01-29T06:51:11.456Z,22.90
2023-01-29T06:53:40.082Z,22.27
2023-01-29T06:56:07.909Z,22.75
2023-01-29T06:58:38.923Z,22.42
2023-01-29T07:01:08.770Z,23.80
2023-01-29T07:03:36.244Z,22.35
2023-01-29T07:06:04.434Z,22.98
2023-01-29T07:08:32.050Z,25.17
2023-01-29T07:11:01.081Z,22.92
2023-01-29T07:13:28.408Z,25.13
2023-01-29T07:16:02.613Z,24.00
2023-01-29T07:20:58.204Z,23.42
2023-01-29T07:23:25.794Z,24.48
2023-01-29T07:25:52.890Z,25.77
2023-01-29T07:28:23.039Z,25.30
2023-01-29T07:30:50.123Z,24.27
2023-01-29T07:33:17.133Z,24.13
2023-01-29T07:35:44.386Z,23.40
2023-01-29T07:38:11.921Z,25.17
2023-01-29T07:40:39.824Z,24.77
2023-01-29T07:43:09.645Z,24.35
2023-01-29T07:45:39.136Z,24.92
2023-01-29T07:48:09.523Z,25.77
2023-01-29T07:50:36.636Z,25.67
2023-01-29T07:53:04.183Z,24.83
2023-01-29T07:55:31.945Z,24.85
2023-01-29T07:58:04.012Z,29.15
2023-01-29T08:00:32.897Z,26.83
2023-01-29T08:03:09.998Z,26.83
2023-01-29T08:05:37.168Z,30.88
2023-01-29T08:08:07.477Z,31.08
2023-01-29T08:10:40.132Z,31.35
2023-01-29T08:13:08.491Z,31.98
2023-01-29T08:15:38.028Z,32.50
2023-01-29T08:18:06.673Z,32.00
2023-01-29T08:20:33.783Z,33.22
2023-01-29T08:23:08.441Z,33.15
2023-01-29T08:25:36.080Z,33.58
2023-01-29T08:28:04.569Z,32.40
2023-01-29T08:30:34.088Z,33.60
2023-01-29T08:33:01.739Z,32.50
2023-01-29T08:35:29.002Z,32.58
2023-01-29T08:38:01.813Z,32.30
2023-01-29T08:40:32.113Z,31.45
2023-01-29T08:43:02.152Z,32.15
2023-01-29T08:45:32.106Z,30.08
2023-01-29T08:47:59.128Z,30.70
2023-01-29T08:50:26.409Z,30.45
2023-01-29T08:52:59.304Z,30.00
2023-01-29T08:55:27.827Z,29.90
2023-01-29T08:57:57.412Z,30.15
2023-01-29T09:00:24.861Z,32.08
2023-01-29T09:02:52.014Z,30.38
2023-01-29T09:05:19.548Z,30.50
2023-01-29T09:07:46.678Z,32.25
2023-01-29T09:10:13.898Z,32.45
2023-01-29T09:12:40.982Z,37.55
2023-01-29T09:15:09.052Z,33.58
2023-01-29T09:17:36.223Z,35.17
2023-01-29T09:20:06.256Z,33.88
2023-01-29T09:22:34.062Z,33.05
2023-01-29T09:25:01.118Z,33.10
2023-01-29T09:27:28.563Z,32.22
2023-01-29T09:29:55.559Z,31.77
2023-01-29T09:32:49.715Z,35.58
2023-01-29T09:35:10.013Z,32.53
2023-01-29T09:37:37.545Z,33.13
2023-01-29T09:40:05.554Z,31.48
2023-01-29T09:42:48.628Z,30.05
2023-01-29T09:45:24.884Z,31.00
2023-01-29T09:47:53.870Z,30.05
2023-01-29T09:50:29.745Z,33.15
2023-01-29T09:53:22.257Z,32.13
2023-01-29T09:55:54.510Z,34.20
2023-01-29T09:58:34.489Z,31.25
2023-01-29T10:01:41.108Z,31.38
2023-01-29T10:04:51.343Z,30.35
2023-01-29T10:08:18.404Z,30.83
2023-01-29T10:10:52.208Z,30.50
2023-01-29T10:13:24.945Z,31.65
2023-01-29T10:16:22.271Z,31.08
2023-01-29T10:18:49.307Z,31.63
2023-01-29T10:21:47.128Z,33.65
2023-01-29T10:24:29.045Z,34.17
2023-01-29T10:26:56.359Z,31.15
2023-01-29T10:29:25.316Z,33.45
2023-01-29T10:32:06.034Z,32.53
2023-01-29T10:34:44.303Z,32.92
2023-01-29T10:37:42.415Z,30.60
2023-01-29T10:40:21.853Z,33.40
2023-01-29T10:43:12.999Z,31.80
2023-01-29T10:46:03.220Z,29.80
2023-01-29T10:48:58.952Z,31.83
2023-01-29T10:51:56.832Z,28.90
2023-01-29T10:54:54.688Z,43.08
2023-01-29T10:57:56.555Z,36.28
2023-01-29T11:00:30.536Z,30.20
2023-01-29T11:03:28.652Z,37.58
2023-01-29T11:06:23.826Z,34.83
2023-01-29T11:09:11.576Z,33.60
2023-01-29T11:11:52.617Z,26.20
2023-01-29T11:14:27.374Z,25.95
2023-01-29T11:16:54.391Z,26.02
2023-01-29T11:19:43.901Z,22.90
2023-01-29T11:22:29.439Z,24.90
2023-01-29T11:25:21.691Z,23.83
2023-01-29T11:28:02.154Z,30.30
2023-01-29T11:30:38.615Z,50.05
2023-01-29T11:33:05.571Z,26.15
2023-01-29T11:35:33.577Z,24.27
2023-01-29T11:38:29.867Z,23.45
2023-01-29T11:41:16.795Z,22.15
2023-01-29T11:43:43.805Z,23.17
2023-01-29T11:46:16.134Z,24.35
2023-01-29T11:48:47.986Z,21.30
2023-01-29T11:51:29.105Z,19.20
2023-01-29T11:54:01.168Z,23.88
2023-01-29T11:56:45.714Z,22.25
2023-01-29T11:59:50.293Z,22.50
2023-01-29T12:02:37.038Z,21.38
2023-01-29T12:05:20.184Z,21.13
2023-01-29T12:07:50.765Z,22.58
2023-01-29T12:10:33.665Z,21.92
2023-01-29T12:13:09.565Z,18.73
2023-01-29T12:15:40.672Z,20.20
2023-01-29T12:18:30.535Z,22.13
2023-01-29T12:21:47.499Z,19.20
2023-01-29T12:24:44.754Z,17.58
2023-01-29T12:27:38.292Z,17.33
2023-01-29T12:30:26.199Z,18.08
2023-01-29T12:33:05.934Z,19.30
2023-01-29T12:35:47.678Z,18.02
2023-01-29T12:38:22.373Z,17.80
2023-01-29T12:41:08.017Z,18.17
2023-01-29T12:44:43.544Z,17.08
2023-01-29T12:47:47.180Z,19.75
2023-01-29T12:50:26.422Z,18.75
2023-01-29T12:53:00.828Z,18.77
2023-01-29T12:55:45.370Z,16.90
2023-01-29T13:01:17.836Z,16.08
2023-01-29T13:04:01.473Z,16.38
2023-01-29T13:06:44.524Z,18.77
2023-01-29T13:09:24.816Z,19.23
2023-01-29T13:12:07.852Z,18.95
2023-01-29T13:15:04.149Z,17.50
2023-01-29T13:17:42.359Z,19.25
2023-01-29T13:20:24.635Z,20.45
2023-01-29T13:22:56.654Z,18.17
2023-01-29T13:25:23.802Z,16.25
2023-01-29T13:27:51.629Z,16.05
2023-01-29T13:30:34.307Z,17.45
2023-01-29T13:33:11.394Z,16.95
2023-01-29T13:35:43.510Z,15.43
2023-01-29T13:38:28.693Z,13.07
2023-01-29T13:41:04.860Z,13.88
2023-01-29T13:43:41.827Z,10.85
2023-01-29T13:46:21.454Z,12.50
2023-01-29T13:48:51.788Z,12.38
2023-01-29T13:51:23.046Z,14.27
2023-01-29T13:53:57.342Z,14.55
2023-01-29T13:59:05.373Z,18.03
2023-01-29T14:01:47.588Z,16.70
2023-01-29T14:04:31.335Z,15.60
2023-01-29T14:07:06.605Z,12.40
2023-01-29T14:09:36.923Z,14.75
2023-01-29T14:12:24.519Z,14.32
2023-01-29T14:14:57.251Z,14.45
2023-01-29T14:17:26.738Z,15.18
2023-01-29T14:20:20.383Z,15.18
2023-01-29T14:22:59.727Z,13.33
2023-01-29T14:25:34.130Z,12.27
2023-01-29T14:28:03.866Z,13.15
2023-01-29T14:30:34.825Z,13.30
2023-01-29T14:33:03.291Z,15.02
2023-01-29T14:35:34.204Z,14.63
2023-01-29T14:38:05.937Z,14.77
2023-01-29T14:40:37.062Z,14.13
2023-01-29T14:43:19.915Z,21.10
2023-01-29T14:45:49.478Z,14.90
2023-01-29T14:48:37.251Z,14.63
2023-01-29T14:51:14.911Z,16.52
2023-01-29T14:54:16.716Z,14.73
2023-01-29T14:57:02.446Z,16.85
2023-01-29T14:59:37.475Z,15.43
2023-01-29T15:02:19.032Z,14.35
2023-01-29T15:04:55.412Z,16.38
2023-01-29T15:07:34.922Z,18.35
2023-01-29T15:10:35.851Z,16.05
2023-01-29T15:13:16.051Z,16.88
2023-01-29T15:16:15.109Z,16.02
2023-01-29T15:18:44.077Z,13.65
2023-01-29T15:21:19.081Z,14.15
2023-01-29T15:23:50.395Z,15.15
2023-01-29T15:26:27.247Z,15.23
2023-01-29T15:29:04.954Z,16.58
2023-01-29T15:31:32.608Z,15.48
2023-01-29T15:34:06.601Z,16.52
2023-01-29T15:36:34.125Z,17.00
2023-01-29T15:39:13.397Z,15.57
2023-01-29T15:41:40.541Z,17.50
2023-01-29T15:44:19.015Z,19.02
2023-01-29T15:46:53.160Z,16.70
2023-01-29T15:52:05.858Z,16.13
2023-01-29T15:54:35.110Z,17.38
2023-01-29T15:57:03.836Z,16.77
2023-01-29T15:59:44.804Z,18.13
2023-01-29T16:02:40.074Z,18.73
2023-01-29T16:05:16.164Z,18.33
2023-01-29T16:07:45.581Z,20.90
2023-01-29T16:10:23.026Z,19.15
2023-01-29T16:12:51.734Z,20.45
2023-01-29T16:15:30.582Z,19.58
2023-01-29T16:18:00.116Z,19.33
2023-01-29T16:20:45.367Z,19.05
2023-01-29T16:23:24.840Z,17.30
2023-01-29T16:25:52.111Z,17.83
2023-01-29T16:28:20.065Z,18.38
2023-01-29T16:30:47.472Z,21.30
2023-01-29T16:33:17.279Z,19.13
2023-01-29T16:35:51.947Z,16.73
2023-01-29T16:38:32.574Z,17.93
2023-01-29T16:41:31.034Z,18.55
2023-01-29T16:44:04.592Z,19.25
2023-01-29T16:46:46.592Z,19.50
2023-01-29T16:49:28.549Z,18.15
2023-01-29T16:51:58.491Z,18.45
2023-01-29T16:54:27.577Z,19.88
2023-01-29T16:57:02.081Z,20.25
2023-01-29T16:59:38.553Z,24.45
2023-01-29T17:02:33.391Z,23.02
2023-01-29T17:05:06.981Z,32.50
2023-01-29T17:07:37.339Z,27.58
2023-01-29T17:10:07.284Z,25.63
2023-01-29T17:12:35.121Z,23.77
2023-01-29T17:15:33.008Z,21.95
2023-01-29T17:18:00.588Z,21.40
2023-01-29T17:20:27.975Z,21.67
2023-01-29T17:22:55.142Z,19.83
2023-01-29T17:25:22.241Z,21.17
2023-01-29T17:27:52.210Z,21.80
2023-01-29T17:30:22.707Z,22.73
2023-01-29T17:32:49.806Z,20.92
2023-01-29T17:35:18.157Z,19.80
2023-01-29T17:37:45.525Z,20.75
2023-01-29T17:40:34.527Z,21.30
2023-01-29T17:43:01.501Z,21.15
2023-01-29T17:45:28.993Z,18.00
2023-01-29T17:47:56.160Z,19.40
2023-01-29T17:50:28.070Z,20.58
2023-01-29T17:52:55.123Z,19.02
2023-01-29T17:55:22.110Z,20.40
2023-01-29T17:57:49.288Z,20.10
2023-01-29T18:00:21.327Z,21.48
2023-01-29T18:02:49.049Z,19.25
2023-01-29T18:05:18.054Z,19.73
2023-01-29T18:07:47.267Z,19.38
2023-01-29T18:10:19.992Z,18.92
2023-01-29T18:12:47.457Z,20.02
2023-01-29T18:15:14.923Z,21.55
2023-01-29T18:17:42.658Z,19.67
2023-01-29T18:20:28.320Z,20.38
2023-01-29T18:22:55.326Z,23.10
2023-01-29T18:25:24.168Z,20.83
2023-01-29T18:27:51.866Z,21.65
2023-01-29T18:30:18.806Z,21.10
2023-01-29T18:32:47.486Z,20.55
2023-01-29T18:35:15.161Z,20.35
2023-01-29T18:37:42.362Z,19.08
2023-01-29T18:40:17.260Z,20.58
2023-01-29T18:42:46.215Z,23.77
2023-01-29T18:45:15.543Z,23.23
2023-01-29T18:47:42.775Z,23.15
2023-01-29T18:50:11.243Z,21.73
2023-01-29T18:52:38.231Z,20.48
2023-01-29T18:55:05.767Z,23.30
2023-01-29T18:58:27.974Z,21.95
2023-01-29T19:00:21.910Z,25.13
2023-01-29T19:02:49.271Z,21.85
2023-01-29T19:05:19.361Z,22.38
2023-01-29T19:07:46.750Z,21.80
2023-01-29T19:10:16.859Z,23.85
2023-01-29T19:12:44.362Z,24.48
2023-01-29T19:15:12.094Z,23.70
2023-01-29T19:17:39.327Z,23.60
2023-01-29T19:20:07.644Z,24.52
2023-01-29T19:22:34.648Z,34.95
2023-01-29T19:25:01.647Z,32.72
2023-01-29T19:27:30.687Z,31.30
2023-01-29T19:29:59.504Z,34.17
2023-01-29T19:32:28.110Z,36.17
2023-01-29T19:34:55.321Z,35.72
2023-01-29T19:37:22.613Z,32.05
2023-01-29T19:39:49.934Z,30.05
2023-01-29T19:42:17.537Z,31.83
2023-01-29T19:44:45.453Z,30.48
2023-01-29T19:47:12.656Z,29.73
2023-01-29T19:49:40.561Z,29.08
2023-01-29T19:52:15.116Z,29.67
2023-01-29T19:54:46.670Z,33.40
2023-01-29T19:57:13.690Z,34.13
2023-01-29T19:59:40.790Z,34.92
2023-01-29T20:02:09.631Z,32.00
2023-01-29T20:04:36.687Z,33.28
2023-01-29T20:07:03.858Z,30.98
2023-01-29T20:09:30.902Z,31.27
2023-01-29T20:11:58.047Z,30.20
2023-01-29T20:14:25.124Z,30.45
2023-01-29T20:16:52.222Z,31.02
2023-01-29T20:19:20.575Z,27.67
2023-01-29T20:21:48.947Z,27.60
2023-01-29T20:24:16.102Z,28.98
2023-01-29T20:26:43.232Z,32.25
2023-01-29T20:29:10.265Z,31.35
2023-01-29T20:31:37.389Z,29.30
2023-01-29T20:34:04.333Z,29.05
2023-01-29T20:36:31.374Z,28.50
2023-01-29T20:38:58.478Z,26.92
2023-01-29T20:41:25.983Z,28.90
2023-01-29T20:43:53.122Z,28.67
2023-01-29T20:46:20.762Z,29.08
2023-01-29T20:48:49.130Z,26.42
2023-01-29T20:51:17.704Z,25.88
2023-01-29T20:53:47.347Z,27.58
2023-01-29T20:56:17.177Z,28.95
2023-01-29T20:58:46.676Z,27.58
2023-01-29T21:01:17.495Z,27.85
2023-01-29T21:03:46.441Z,27.30
2023-01-29T21:06:14.798Z,28.65
2023-01-29T21:08:42.298Z,28.00
2023-01-29T21:11:10.723Z,27.55
2023-01-29T21:13:38.295Z,30.00
2023-01-29T21:16:06.277Z,30.38
2023-01-29T21:18:33.232Z,32.75
2023-01-29T21:21:00.188Z,32.90
2023-01-29T21:23:27.156Z,34.22
2023-01-29T21:25:54.159Z,31.30
2023-01-29T21:28:21.140Z,29.35
2023-01-29T21:30:48.932Z,28.35
2023-01-29T21:33:16.374Z,30.33
2023-01-29T21:35:43.304Z,31.40
2023-01-29T21:38:10.290Z,34.45
2023-01-29T21:40:37.170Z,31.38
2023-01-29T21:43:13.261Z,30.92
2023-01-29T21:45:41.199Z,30.52
2023-01-29T21:48:10.515Z,32.65
2023-01-29T21:50:38.341Z,31.20
2023-01-29T21:53:05.235Z,33.58
2023-01-29T21:55:32.832Z,33.15
2023-01-29T21:58:00.467Z,31.27
2023-01-29T22:00:28.086Z,34.67
2023-01-29T22:02:55.101Z,33.42
2023-01-29T22:05:22.161Z,33.50
2023-01-29T22:07:49.724Z,34.25
2023-01-29T22:10:18.727Z,34.67
2023-01-29T22:12:46.170Z,40.45
2023-01-29T22:15:13.752Z,40.65
2023-01-29T22:17:42.795Z,41.80
2023-01-29T22:20:14.728Z,40.20
2023-01-29T22:22:42.180Z,38.95
2023-01-29T22:25:09.669Z,37.22
2023-01-29T22:27:36.719Z,38.55
2023-01-29T22:30:05.565Z,39.10
2023-01-29T22:32:32.835Z,36.72
2023-01-29T22:34:59.913Z,33.80
2023-01-29T22:37:26.877Z,32.83
2023-01-29T22:39:53.829Z,32.45
2023-01-29T22:42:21.090Z,31.38
2023-01-29T22:44:48.648Z,30.17
2023-01-29T22:47:16.101Z,28.70
2023-01-29T22:49:45.456Z,29.15
2023-01-29T22:52:12.398Z,27.25
2023-01-29T22:54:42.232Z,28.23
2023-01-29T22:57:14.840Z,29.25
2023-01-29T22:59:41.894Z,27.50
2023-01-29T23:02:09.660Z,27.25
2023-01-29T23:04:37.345Z,25.23
2023-01-29T23:07:04.620Z,27.48
2023-01-29T23:09:31.591Z,27.30
2023-01-29T23:11:58.494Z,27.75
2023-01-29T23:14:25.438Z,25.17
2023-01-29T23:16:52.315Z,24.60
2023-01-29T23:19:19.811Z,27.08
2023-01-29T23:21:46.698Z,26.23
2023-01-29T23:24:13.816Z,25.95
2023-01-29T23:26:59.229Z,27.23
2023-01-29T23:29:26.082Z,25.85
2023-01-29T23:31:53.176Z,27.35
2023-01-29T23:34:20.540Z,27.85
2023-01-29T23:36:47.719Z,28.50
2023-01-29T23:39:15.312Z,28.00
2023-01-29T23:41:42.557Z,27.60
2023-01-29T23:44:09.563Z,29.38
2023-01-29T23:46:36.664Z,28.30
2023-01-29T23:49:03.726Z,30.83
2023-01-29T23:51:30.635Z,29.20
2023-01-29T23:53:57.733Z,27.80
2023-01-29T23:56:25.255Z,26.35
2023-01-29T23:58:56.872Z,28.45
